sensor_id;sensor_type;location;lat;lon;timestamp;P1;durP1;ratioP1;P2;durP2;ratioP2
18796;SDS011;9526;52.612;13.300;2023-12-29T00:00:29;4.25;;;1.73;;
18796;SDS011;9526;52.612;13.300;2023-12-29T00:02:54;4.32;;;2.13;;
18796;SDS011;9526;52.612;13.300;2023-12-29T00:05:18;5.47;;;2.03;;
18796;SDS011;9526;52.612;13.300;2023-12-29T00:07:41;7.03;;;1.90;;
18796;SDS011;9526;52.612;13.300;2023-12-29T00:10:06;4.15;;;1.85;;
18796;SDS011;9526;52.612;13.300;2023-12-29T00:12:31;2.88;;;1.65;;
18796;SDS011;9526;52.612;13.300;2023-12-29T00:14:54;2.95;;;1.70;;
18796;SDS011;9526;52.612;13.300;2023-12-29T00:17:18;3.65;;;1.67;;
18796;SDS011;9526;52.612;13.300;2023-12-29T00:19:43;2.83;;;1.80;;
18796;SDS011;9526;52.612;13.300;2023-12-29T00:22:07;3.97;;;1.85;;
18796;SDS011;9526;52.612;13.300;2023-12-29T00:24:31;2.40;;;1.60;;
18796;SDS011;9526;52.612;13.300;2023-12-29T00:26:55;1.85;;;1.40;;
18796;SDS011;9526;52.612;13.300;2023-12-29T00:29:18;1.98;;;1.38;;
18796;SDS011;9526;52.612;13.300;2023-12-29T00:31:42;2.33;;;1.42;;
18796;SDS011;9526;52.612;13.300;2023-12-29T00:34:06;2.03;;;1.50;;
18796;SDS011;9526;52.612;13.300;2023-12-29T00:36:31;3.45;;;1.50;;
18796;SDS011;9526;52.612;13.300;2023-12-29T00:38:55;2.30;;;1.60;;
18796;SDS011;9526;52.612;13.300;2023-12-29T00:41:19;3.58;;;1.20;;
18796;SDS011;9526;52.612;13.300;2023-12-29T00:43:42;4.80;;;0.82;;
18796;SDS011;9526;52.612;13.300;2023-12-29T00:46:06;3.15;;;1.50;;
18796;SDS011;9526;52.612;13.300;2023-12-29T00:48:31;2.78;;;1.70;;
18796;SDS011;9526;52.612;13.300;2023-12-29T00:50:55;4.10;;;1.65;;
18796;SDS011;9526;52.612;13.300;2023-12-29T00:53:20;4.32;;;1.50;;
18796;SDS011;9526;52.612;13.300;2023-12-29T00:55:44;2.75;;;1.65;;
18796;SDS011;9526;52.612;13.300;2023-12-29T00:58:08;3.20;;;1.92;;
18796;SDS011;9526;52.612;13.300;2023-12-29T01:00:32;3.70;;;1.80;;
18796;SDS011;9526;52.612;13.300;2023-12-29T01:02:56;3.92;;;1.83;;
18796;SDS011;9526;52.612;13.300;2023-12-29T01:05:20;3.75;;;1.50;;
18796;SDS011;9526;52.612;13.300;2023-12-29T01:07:44;3.08;;;1.60;;
18796;SDS011;9526;52.612;13.300;2023-12-29T01:10:10;3.05;;;1.60;;
18796;SDS011;9526;52.612;13.300;2023-12-29T01:12:33;2.60;;;1.40;;
18796;SDS011;9526;52.612;13.300;2023-12-29T01:14:57;2.95;;;1.77;;
18796;SDS011;9526;52.612;13.300;2023-12-29T01:17:21;4.45;;;1.55;;
18796;SDS011;9526;52.612;13.300;2023-12-29T01:19:46;3.05;;;1.50;;
18796;SDS011;9526;52.612;13.300;2023-12-29T01:22:09;4.07;;;1.70;;
18796;SDS011;9526;52.612;13.300;2023-12-29T01:24:33;3.35;;;1.58;;
18796;SDS011;9526;52.612;13.300;2023-12-29T01:27:08;2.90;;;1.52;;
18796;SDS011;9526;52.612;13.300;2023-12-29T01:29:31;4.05;;;1.50;;
18796;SDS011;9526;52.612;13.300;2023-12-29T01:31:57;3.15;;;1.55;;
18796;SDS011;9526;52.612;13.300;2023-12-29T01:34:21;1.80;;;1.23;;
18796;SDS011;9526;52.612;13.300;2023-12-29T01:36:45;3.30;;;1.70;;
18796;SDS011;9526;52.612;13.300;2023-12-29T01:39:10;3.08;;;1.40;;
18796;SDS011;9526;52.612;13.300;2023-12-29T01:41:33;3.20;;;1.58;;
18796;SDS011;9526;52.612;13.300;2023-12-29T01:46:44;3.17;;;1.40;;
18796;SDS011;9526;52.612;13.300;2023-12-29T01:49:08;3.25;;;1.60;;
18796;SDS011;9526;52.612;13.300;2023-12-29T01:51:33;3.95;;;1.42;;
18796;SDS011;9526;52.612;13.300;2023-12-29T01:53:56;2.75;;;1.50;;
18796;SDS011;9526;52.612;13.300;2023-12-29T01:56:21;3.80;;;1.60;;
18796;SDS011;9526;52.612;13.300;2023-12-29T01:58:45;2.92;;;1.45;;
18796;SDS011;9526;52.612;13.300;2023-12-29T02:01:13;4.95;;;1.60;;
18796;SDS011;9526;52.612;13.300;2023-12-29T02:03:38;2.78;;;1.67;;
18796;SDS011;9526;52.612;13.300;2023-12-29T02:06:02;2.85;;;1.42;;
18796;SDS011;9526;52.612;13.300;2023-12-29T02:08:27;4.40;;;1.70;;
18796;SDS011;9526;52.612;13.300;2023-12-29T02:10:52;4.60;;;1.60;;
18796;SDS011;9526;52.612;13.300;2023-12-29T02:13:16;3.72;;;1.50;;
18796;SDS011;9526;52.612;13.300;2023-12-29T02:15:40;2.10;;;1.35;;
18796;SDS011;9526;52.612;13.300;2023-12-29T02:18:06;2.90;;;1.42;;
18796;SDS011;9526;52.612;13.300;2023-12-29T02:20:36;4.28;;;1.58;;
18796;SDS011;9526;52.612;13.300;2023-12-29T02:23:00;3.95;;;1.80;;
18796;SDS011;9526;52.612;13.300;2023-12-29T02:25:26;8.55;;;1.60;;
18796;SDS011;9526;52.612;13.300;2023-12-29T02:27:51;3.72;;;1.50;;
18796;SDS011;9526;52.612;13.300;2023-12-29T02:30:22;4.88;;;1.50;;
18796;SDS011;9526;52.612;13.300;2023-12-29T02:32:52;3.85;;;1.70;;
18796;SDS011;9526;52.612;13.300;2023-12-29T02:35:23;3.67;;;1.45;;
18796;SDS011;9526;52.612;13.300;2023-12-29T02:37:50;3.10;;;1.58;;
18796;SDS011;9526;52.612;13.300;2023-12-29T02:40:14;3.72;;;1.65;;
18796;SDS011;9526;52.612;13.300;2023-12-29T02:42:40;4.32;;;1.50;;
18796;SDS011;9526;52.612;13.300;2023-12-29T02:45:09;4.03;;;1.67;;
18796;SDS011;9526;52.612;13.300;2023-12-29T02:47:32;3.78;;;1.92;;
18796;SDS011;9526;52.612;13.300;2023-12-29T02:49:56;4.68;;;1.70;;
18796;SDS011;9526;52.612;13.300;2023-12-29T02:52:20;4.50;;;1.70;;
18796;SDS011;9526;52.612;13.300;2023-12-29T02:54:44;2.92;;;1.50;;
18796;SDS011;9526;52.612;13.300;2023-12-29T02:57:07;3.13;;;1.67;;
18796;SDS011;9526;52.612;13.300;2023-12-29T02:59:32;4.63;;;1.75;;
18796;SDS011;9526;52.612;13.300;2023-12-29T03:01:56;4.45;;;1.77;;
18796;SDS011;9526;52.612;13.300;2023-12-29T03:04:22;3.25;;;1.77;;
18796;SDS011;9526;52.612;13.300;2023-12-29T03:06:45;2.63;;;1.70;;
18796;SDS011;9526;52.612;13.300;2023-12-29T03:09:09;3.03;;;1.77;;
18796;SDS011;9526;52.612;13.300;2023-12-29T03:11:33;3.40;;;1.73;;
18796;SDS011;9526;52.612;13.300;2023-12-29T03:13:56;2.45;;;1.70;;
18796;SDS011;9526;52.612;13.300;2023-12-29T03:16:21;1.88;;;1.35;;
18796;SDS011;9526;52.612;13.300;2023-12-29T03:18:45;2.28;;;1.33;;
18796;SDS011;9526;52.612;13.300;2023-12-29T03:21:09;3.45;;;1.63;;
18796;SDS011;9526;52.612;13.300;2023-12-29T03:23:33;2.92;;;1.60;;
18796;SDS011;9526;52.612;13.300;2023-12-29T03:25:57;4.57;;;1.73;;
18796;SDS011;9526;52.612;13.300;2023-12-29T03:28:21;1.98;;;1.55;;
18796;SDS011;9526;52.612;13.300;2023-12-29T03:30:44;2.33;;;1.50;;
18796;SDS011;9526;52.612;13.300;2023-12-29T03:33:09;5.07;;;1.80;;
18796;SDS011;9526;52.612;13.300;2023-12-29T03:35:33;3.90;;;1.40;;
18796;SDS011;9526;52.612;13.300;2023-12-29T03:37:57;2.97;;;1.83;;
18796;SDS011;9526;52.612;13.300;2023-12-29T03:40:21;2.17;;;1.42;;
18796;SDS011;9526;52.612;13.300;2023-12-29T03:42:46;4.65;;;1.52;;
18796;SDS011;9526;52.612;13.300;2023-12-29T03:45:10;3.00;;;1.85;;
18796;SDS011;9526;52.612;13.300;2023-12-29T03:47:33;2.65;;;1.50;;
18796;SDS011;9526;52.612;13.300;2023-12-29T03:50:00;2.22;;;1.30;;
18796;SDS011;9526;52.612;13.300;2023-12-29T03:52:23;2.47;;;1.63;;
18796;SDS011;9526;52.612;13.300;2023-12-29T03:54:47;2.90;;;1.67;;
18796;SDS011;9526;52.612;13.300;2023-12-29T03:57:11;2.53;;;1.70;;
18796;SDS011;9526;52.612;13.300;2023-12-29T03:59:36;2.00;;;1.40;;
18796;SDS011;9526;52.612;13.300;2023-12-29T04:02:01;1.77;;;1.33;;
18796;SDS011;9526;52.612;13.300;2023-12-29T04:04:25;4.82;;;1.17;;
18796;SDS011;9526;52.612;13.300;2023-12-29T04:06:50;4.13;;;1.80;;
18796;SDS011;9526;52.612;13.300;2023-12-29T04:09:13;2.03;;;1.38;;
18796;SDS011;9526;52.612;13.300;2023-12-29T04:11:37;1.63;;;1.33;;
18796;SDS011;9526;52.612;13.300;2023-12-29T04:14:01;1.83;;;1.40;;
18796;SDS011;9526;52.612;13.300;2023-12-29T04:16:25;4.13;;;1.35;;
18796;SDS011;9526;52.612;13.300;2023-12-29T04:18:49;6.32;;;1.38;;
18796;SDS011;9526;52.612;13.300;2023-12-29T04:21:13;2.15;;;1.40;;
18796;SDS011;9526;52.612;13.300;2023-12-29T04:23:38;1.73;;;1.30;;
18796;SDS011;9526;52.612;13.300;2023-12-29T04:26:03;2.28;;;1.30;;
18796;SDS011;9526;52.612;13.300;2023-12-29T04:28:27;3.50;;;1.30;;
18796;SDS011;9526;52.612;13.300;2023-12-29T04:30:51;1.77;;;1.33;;
18796;SDS011;9526;52.612;13.300;2023-12-29T04:33:15;2.72;;;1.50;;
18796;SDS011;9526;52.612;13.300;2023-12-29T04:35:39;4.85;;;1.45;;
18796;SDS011;9526;52.612;13.300;2023-12-29T04:38:03;3.70;;;1.20;;
18796;SDS011;9526;52.612;13.300;2023-12-29T04:40:30;2.90;;;1.15;;
18796;SDS011;9526;52.612;13.300;2023-12-29T04:42:54;3.38;;;1.20;;
18796;SDS011;9526;52.612;13.300;2023-12-29T04:45:18;4.07;;;1.20;;
18796;SDS011;9526;52.612;13.300;2023-12-29T04:47:42;2.20;;;1.10;;
18796;SDS011;9526;52.612;13.300;2023-12-29T04:50:06;2.25;;;1.05;;
18796;SDS011;9526;52.612;13.300;2023-12-29T04:52:31;1.63;;;1.20;;
18796;SDS011;9526;52.612;13.300;2023-12-29T04:54:54;1.73;;;1.20;;
18796;SDS011;9526;52.612;13.300;2023-12-29T04:57:19;1.92;;;1.30;;
18796;SDS011;9526;52.612;13.300;2023-12-29T04:59:43;2.03;;;0.93;;
18796;SDS011;9526;52.612;13.300;2023-12-29T05:02:06;3.83;;;1.05;;
18796;SDS011;9526;52.612;13.300;2023-12-29T05:04:30;1.40;;;0.90;;
18796;SDS011;9526;52.612;13.300;2023-12-29T05:06:54;1.65;;;1.00;;
18796;SDS011;9526;52.612;13.300;2023-12-29T05:09:18;2.03;;;1.10;;
18796;SDS011;9526;52.612;13.300;2023-12-29T05:11:42;1.95;;;1.10;;
18796;SDS011;9526;52.612;13.300;2023-12-29T05:14:07;1.95;;;1.20;;
18796;SDS011;9526;52.612;13.300;2023-12-29T05:16:31;1.27;;;0.85;;
18796;SDS011;9526;52.612;13.300;2023-12-29T05:18:55;2.03;;;1.17;;
18796;SDS011;9526;52.612;13.300;2023-12-29T05:21:18;1.80;;;1.08;;
18796;SDS011;9526;52.612;13.300;2023-12-29T05:23:43;1.50;;;1.00;;
18796;SDS011;9526;52.612;13.300;2023-12-29T05:26:09;4.22;;;1.17;;
18796;SDS011;9526;52.612;13.300;2023-12-29T05:28:32;3.97;;;1.27;;
18796;SDS011;9526;52.612;13.300;2023-12-29T05:30:57;1.48;;;1.02;;
18796;SDS011;9526;52.612;13.300;2023-12-29T05:33:25;1.20;;;0.88;;
18796;SDS011;9526;52.612;13.300;2023-12-29T05:35:49;1.67;;;1.20;;
18796;SDS011;9526;52.612;13.300;2023-12-29T05:38:12;1.77;;;1.00;;
18796;SDS011;9526;52.612;13.300;2023-12-29T05:40:36;4.95;;;1.20;;
18796;SDS011;9526;52.612;13.300;2023-12-29T05:43:00;5.63;;;1.10;;
18796;SDS011;9526;52.612;13.300;2023-12-29T05:45:23;3.30;;;1.10;;
18796;SDS011;9526;52.612;13.300;2023-12-29T05:47:49;2.38;;;1.10;;
18796;SDS011;9526;52.612;13.300;2023-12-29T05:50:13;4.97;;;1.10;;
18796;SDS011;9526;52.612;13.300;2023-12-29T05:52:36;1.30;;;0.93;;
18796;SDS011;9526;52.612;13.300;2023-12-29T05:55:00;2.97;;;1.00;;
18796;SDS011;9526;52.612;13.300;2023-12-29T05:57:24;2.63;;;0.95;;
18796;SDS011;9526;52.612;13.300;2023-12-29T05:59:48;1.52;;;0.70;;
18796;SDS011;9526;52.612;13.300;2023-12-29T06:02:12;1.63;;;0.70;;
18796;SDS011;9526;52.612;13.300;2023-12-29T06:04:37;3.15;;;1.20;;
18796;SDS011;9526;52.612;13.300;2023-12-29T06:07:01;1.75;;;0.75;;
18796;SDS011;9526;52.612;13.300;2023-12-29T06:09:25;1.85;;;1.00;;
18796;SDS011;9526;52.612;13.300;2023-12-29T06:11:49;3.30;;;1.13;;
18796;SDS011;9526;52.612;13.300;2023-12-29T06:14:13;2.22;;;1.00;;
18796;SDS011;9526;52.612;13.300;2023-12-29T06:16:37;0.95;;;0.73;;
18796;SDS011;9526;52.612;13.300;2023-12-29T06:19:01;1.63;;;1.05;;
18796;SDS011;9526;52.612;13.300;2023-12-29T06:21:26;1.17;;;0.90;;
18796;SDS011;9526;52.612;13.300;2023-12-29T06:23:50;1.20;;;0.98;;
18796;SDS011;9526;52.612;13.300;2023-12-29T06:26:14;1.30;;;0.93;;
18796;SDS011;9526;52.612;13.300;2023-12-29T06:28:38;1.20;;;0.85;;
18796;SDS011;9526;52.612;13.300;2023-12-29T06:31:02;1.00;;;0.80;;
18796;SDS011;9526;52.612;13.300;2023-12-29T06:33:26;2.58;;;1.05;;
18796;SDS011;9526;52.612;13.300;2023-12-29T06:35:50;2.55;;;1.00;;
18796;SDS011;9526;52.612;13.300;2023-12-29T06:38:15;1.02;;;0.82;;
18796;SDS011;9526;52.612;13.300;2023-12-29T06:40:39;2.38;;;0.90;;
18796;SDS011;9526;52.612;13.300;2023-12-29T06:43:03;3.22;;;1.00;;
18796;SDS011;9526;52.612;13.300;2023-12-29T06:45:27;2.63;;;1.05;;
18796;SDS011;9526;52.612;13.300;2023-12-29T06:47:51;1.15;;;0.70;;
18796;SDS011;9526;52.612;13.300;2023-12-29T06:50:15;1.77;;;0.88;;
18796;SDS011;9526;52.612;13.300;2023-12-29T06:52:39;3.88;;;1.00;;
18796;SDS011;9526;52.612;13.300;2023-12-29T06:55:04;1.65;;;0.90;;
18796;SDS011;9526;52.612;13.300;2023-12-29T06:57:30;1.67;;;0.85;;
18796;SDS011;9526;52.612;13.300;2023-12-29T06:59:53;2.45;;;1.00;;
18796;SDS011;9526;52.612;13.300;2023-12-29T07:02:17;1.65;;;0.90;;
18796;SDS011;9526;52.612;13.300;2023-12-29T07:04:41;2.25;;;1.10;;
18796;SDS011;9526;52.612;13.300;2023-12-29T07:07:05;2.22;;;0.90;;
18796;SDS011;9526;52.612;13.300;2023-12-29T07:09:29;3.80;;;1.10;;
18796;SDS011;9526;52.612;13.300;2023-12-29T07:11:54;3.33;;;1.00;;
18796;SDS011;9526;52.612;13.300;2023-12-29T07:14:18;1.63;;;0.80;;
18796;SDS011;9526;52.612;13.300;2023-12-29T07:16:42;2.40;;;1.10;;
18796;SDS011;9526;52.612;13.300;2023-12-29T07:19:06;2.00;;;1.10;;
18796;SDS011;9526;52.612;13.300;2023-12-29T07:21:30;3.38;;;1.25;;
18796;SDS011;9526;52.612;13.300;2023-12-29T07:23:54;1.10;;;0.90;;
18796;SDS011;9526;52.612;13.300;2023-12-29T07:26:18;1.60;;;1.15;;
18796;SDS011;9526;52.612;13.300;2023-12-29T07:28:43;1.35;;;1.00;;
18796;SDS011;9526;52.612;13.300;2023-12-29T07:31:07;1.10;;;0.80;;
18796;SDS011;9526;52.612;13.300;2023-12-29T07:33:31;2.17;;;1.35;;
18796;SDS011;9526;52.612;13.300;2023-12-29T07:35:55;3.30;;;1.10;;
18796;SDS011;9526;52.612;13.300;2023-12-29T07:38:19;7.88;;;1.00;;
18796;SDS011;9526;52.612;13.300;2023-12-29T07:40:42;4.93;;;1.30;;
18796;SDS011;9526;52.612;13.300;2023-12-29T07:43:07;1.70;;;1.20;;
18796;SDS011;9526;52.612;13.300;2023-12-29T07:45:32;1.90;;;1.02;;
18796;SDS011;9526;52.612;13.300;2023-12-29T07:47:56;1.38;;;1.17;;
18796;SDS011;9526;52.612;13.300;2023-12-29T07:50:21;2.33;;;1.25;;
18796;SDS011;9526;52.612;13.300;2023-12-29T07:52:44;2.97;;;1.33;;
18796;SDS011;9526;52.612;13.300;2023-12-29T07:55:08;1.88;;;0.90;;
18796;SDS011;9526;52.612;13.300;2023-12-29T07:57:32;3.00;;;1.45;;
18796;SDS011;9526;52.612;13.300;2023-12-29T07:59:56;4.78;;;1.33;;
18796;SDS011;9526;52.612;13.300;2023-12-29T08:02:21;2.00;;;1.25;;
18796;SDS011;9526;52.612;13.300;2023-12-29T08:04:44;2.45;;;1.00;;
18796;SDS011;9526;52.612;13.300;2023-12-29T08:07:10;3.05;;;1.30;;
18796;SDS011;9526;52.612;13.300;2023-12-29T08:09:34;1.90;;;1.20;;
18796;SDS011;9526;52.612;13.300;2023-12-29T08:11:57;2.20;;;1.02;;
18796;SDS011;9526;52.612;13.300;2023-12-29T08:14:22;2.28;;;1.00;;
18796;SDS011;9526;52.612;13.300;2023-12-29T08:16:46;3.30;;;1.17;;
18796;SDS011;9526;52.612;13.300;2023-12-29T08:19:11;1.95;;;1.42;;
18796;SDS011;9526;52.612;13.300;2023-12-29T08:21:37;2.50;;;1.27;;
18796;SDS011;9526;52.612;13.300;2023-12-29T08:24:00;6.22;;;1.33;;
18796;SDS011;9526;52.612;13.300;2023-12-29T08:26:24;2.63;;;1.20;;
18796;SDS011;9526;52.612;13.300;2023-12-29T08:28:48;2.10;;;0.88;;
18796;SDS011;9526;52.612;13.300;2023-12-29T08:31:12;3.30;;;1.48;;
18796;SDS011;9526;52.612;13.300;2023-12-29T08:33:38;4.15;;;1.25;;
18796;SDS011;9526;52.612;13.300;2023-12-29T08:36:03;3.30;;;1.20;;
18796;SDS011;9526;52.612;13.300;2023-12-29T08:38:28;5.97;;;1.50;;
18796;SDS011;9526;52.612;13.300;2023-12-29T08:40:52;2.47;;;1.33;;
18796;SDS011;9526;52.612;13.300;2023-12-29T08:43:16;1.73;;;1.00;;
18796;SDS011;9526;52.612;13.300;2023-12-29T08:45:42;3.67;;;1.50;;
18796;SDS011;9526;52.612;13.300;2023-12-29T08:48:06;2.15;;;1.10;;
18796;SDS011;9526;52.612;13.300;2023-12-29T08:50:30;2.20;;;0.90;;
18796;SDS011;9526;52.612;13.300;2023-12-29T08:52:55;3.00;;;1.10;;
18796;SDS011;9526;52.612;13.300;2023-12-29T08:55:19;2.58;;;1.00;;
18796;SDS011;9526;52.612;13.300;2023-12-29T08:57:43;1.52;;;1.00;;
18796;SDS011;9526;52.612;13.300;2023-12-29T09:00:07;5.32;;;1.38;;
18796;SDS011;9526;52.612;13.300;2023-12-29T09:02:32;2.58;;;0.90;;
18796;SDS011;9526;52.612;13.300;2023-12-29T09:04:55;4.28;;;1.00;;
18796;SDS011;9526;52.612;13.300;2023-12-29T09:07:19;1.95;;;1.00;;
18796;SDS011;9526;52.612;13.300;2023-12-29T09:09:44;1.63;;;0.82;;
18796;SDS011;9526;52.612;13.300;2023-12-29T09:12:08;2.90;;;1.05;;
18796;SDS011;9526;52.612;13.300;2023-12-29T09:14:31;1.75;;;0.85;;
18796;SDS011;9526;52.612;13.300;2023-12-29T09:16:56;4.88;;;0.90;;
18796;SDS011;9526;52.612;13.300;2023-12-29T09:19:19;3.88;;;1.13;;
18796;SDS011;9526;52.612;13.300;2023-12-29T09:21:56;1.70;;;1.00;;
18796;SDS011;9526;52.612;13.300;2023-12-29T09:24:20;2.30;;;1.15;;
18796;SDS011;9526;52.612;13.300;2023-12-29T09:26:45;3.13;;;1.30;;
18796;SDS011;9526;52.612;13.300;2023-12-29T09:29:09;2.35;;;0.80;;
18796;SDS011;9526;52.612;13.300;2023-12-29T09:31:33;3.45;;;1.08;;
18796;SDS011;9526;52.612;13.300;2023-12-29T09:33:57;2.90;;;1.27;;
18796;SDS011;9526;52.612;13.300;2023-12-29T09:36:22;3.03;;;0.85;;
18796;SDS011;9526;52.612;13.300;2023-12-29T09:38:45;2.78;;;0.90;;
18796;SDS011;9526;52.612;13.300;2023-12-29T09:41:11;2.85;;;1.10;;
18796;SDS011;9526;52.612;13.300;2023-12-29T09:43:39;2.50;;;0.90;;
18796;SDS011;9526;52.612;13.300;2023-12-29T09:46:04;2.22;;;0.82;;
18796;SDS011;9526;52.612;13.300;2023-12-29T09:48:30;5.15;;;1.30;;
18796;SDS011;9526;52.612;13.300;2023-12-29T09:50:57;1.35;;;0.80;;
18796;SDS011;9526;52.612;13.300;2023-12-29T09:53:20;3.55;;;1.40;;
18796;SDS011;9526;52.612;13.300;2023-12-29T09:55:44;2.05;;;0.98;;
18796;SDS011;9526;52.612;13.300;2023-12-29T09:58:11;1.65;;;0.93;;
18796;SDS011;9526;52.612;13.300;2023-12-29T10:00:37;3.45;;;1.33;;
18796;SDS011;9526;52.612;13.300;2023-12-29T10:03:01;3.00;;;1.30;;
18796;SDS011;9526;52.612;13.300;2023-12-29T10:05:25;2.97;;;1.42;;
18796;SDS011;9526;52.612;13.300;2023-12-29T10:07:49;4.43;;;1.20;;
18796;SDS011;9526;52.612;13.300;2023-12-29T10:10:16;4.18;;;0.88;;
18796;SDS011;9526;52.612;13.300;2023-12-29T10:12:39;3.55;;;1.23;;
18796;SDS011;9526;52.612;13.300;2023-12-29T10:15:05;3.15;;;1.02;;
18796;SDS011;9526;52.612;13.300;2023-12-29T10:17:40;2.42;;;0.80;;
18796;SDS011;9526;52.612;13.300;2023-12-29T10:20:16;3.22;;;1.30;;
18796;SDS011;9526;52.612;13.300;2023-12-29T10:22:55;4.30;;;1.38;;
18796;SDS011;9526;52.612;13.300;2023-12-29T10:25:28;6.65;;;1.08;;
18796;SDS011;9526;52.612;13.300;2023-12-29T10:27:52;5.20;;;1.40;;
18796;SDS011;9526;52.612;13.300;2023-12-29T10:30:16;6.68;;;1.17;;
18796;SDS011;9526;52.612;13.300;2023-12-29T10:32:53;2.50;;;1.13;;
18796;SDS011;9526;52.612;13.300;2023-12-29T10:35:17;2.58;;;1.02;;
18796;SDS011;9526;52.612;13.300;2023-12-29T10:37:41;3.22;;;1.38;;
18796;SDS011;9526;52.612;13.300;2023-12-29T10:40:05;4.03;;;1.20;;
18796;SDS011;9526;52.612;13.300;2023-12-29T10:42:31;5.30;;;1.30;;
18796;SDS011;9526;52.612;13.300;2023-12-29T10:45:04;3.38;;;1.10;;
18796;SDS011;9526;52.612;13.300;2023-12-29T10:47:29;3.88;;;1.15;;
18796;SDS011;9526;52.612;13.300;2023-12-29T10:49:54;5.15;;;1.45;;
18796;SDS011;9526;52.612;13.300;2023-12-29T10:52:22;5.72;;;1.38;;
18796;SDS011;9526;52.612;13.300;2023-12-29T10:54:46;4.53;;;1.25;;
18796;SDS011;9526;52.612;13.300;2023-12-29T10:57:11;4.70;;;1.20;;
18796;SDS011;9526;52.612;13.300;2023-12-29T10:59:35;0.68;;;0.60;;
18796;SDS011;9526;52.612;13.300;2023-12-29T11:02:00;6.13;;;1.20;;
18796;SDS011;9526;52.612;13.300;2023-12-29T11:04:28;7.22;;;1.50;;
18796;SDS011;9526;52.612;13.300;2023-12-29T11:06:53;1.85;;;1.00;;
18796;SDS011;9526;52.612;13.300;2023-12-29T11:09:26;1.75;;;0.90;;
18796;SDS011;9526;52.612;13.300;2023-12-29T11:11:51;4.40;;;1.33;;
18796;SDS011;9526;52.612;13.300;2023-12-29T11:14:15;2.08;;;1.00;;
18796;SDS011;9526;52.612;13.300;2023-12-29T11:16:39;2.42;;;1.10;;
18796;SDS011;9526;52.612;13.300;2023-12-29T11:19:04;3.53;;;1.13;;
18796;SDS011;9526;52.612;13.300;2023-12-29T11:21:28;3.63;;;1.10;;
18796;SDS011;9526;52.612;13.300;2023-12-29T11:23:55;4.20;;;1.30;;
18796;SDS011;9526;52.612;13.300;2023-12-29T11:26:19;3.28;;;1.48;;
18796;SDS011;9526;52.612;13.300;2023-12-29T11:28:45;4.97;;;1.10;;
18796;SDS011;9526;52.612;13.300;2023-12-29T11:31:10;4.72;;;1.13;;
18796;SDS011;9526;52.612;13.300;2023-12-29T11:33:35;5.30;;;1.20;;
18796;SDS011;9526;52.612;13.300;2023-12-29T11:36:07;3.78;;;1.20;;
18796;SDS011;9526;52.612;13.300;2023-12-29T11:38:54;2.60;;;1.23;;
18796;SDS011;9526;52.612;13.300;2023-12-29T11:41:29;4.72;;;1.10;;
18796;SDS011;9526;52.612;13.300;2023-12-29T11:44:01;4.65;;;1.38;;
18796;SDS011;9526;52.612;13.300;2023-12-29T11:46:35;3.53;;;1.40;;
18796;SDS011;9526;52.612;13.300;2023-12-29T11:49:00;3.80;;;1.23;;
18796;SDS011;9526;52.612;13.300;2023-12-29T11:51:30;3.67;;;1.23;;
18796;SDS011;9526;52.612;13.300;2023-12-29T11:53:55;3.60;;;1.20;;
18796;SDS011;9526;52.612;13.300;2023-12-29T11:56:20;3.42;;;1.20;;
18796;SDS011;9526;52.612;13.300;2023-12-29T11:58:44;2.85;;;1.20;;
18796;SDS011;9526;52.612;13.300;2023-12-29T12:01:08;3.35;;;1.40;;
18796;SDS011;9526;52.612;13.300;2023-12-29T12:03:32;2.45;;;0.80;;
18796;SDS011;9526;52.612;13.300;2023-12-29T12:05:55;2.92;;;1.00;;
18796;SDS011;9526;52.612;13.300;2023-12-29T12:08:27;3.72;;;1.05;;
18796;SDS011;9526;52.612;13.300;2023-12-29T12:10:52;4.43;;;1.08;;
18796;SDS011;9526;52.612;13.300;2023-12-29T12:13:26;5.80;;;0.95;;
18796;SDS011;9526;52.612;13.300;2023-12-29T12:16:06;1.75;;;0.68;;
18796;SDS011;9526;52.612;13.300;2023-12-29T12:18:29;1.85;;;0.93;;
18796;SDS011;9526;52.612;13.300;2023-12-29T12:20:55;1.20;;;0.93;;
18796;SDS011;9526;52.612;13.300;2023-12-29T12:23:19;1.95;;;0.90;;
18796;SDS011;9526;52.612;13.300;2023-12-29T12:25:44;7.15;;;1.00;;
18796;SDS011;9526;52.612;13.300;2023-12-29T12:28:09;2.40;;;1.00;;
18796;SDS011;9526;52.612;13.300;2023-12-29T12:30:37;1.60;;;0.90;;
18796;SDS011;9526;52.612;13.300;2023-12-29T12:33:01;1.77;;;1.10;;
18796;SDS011;9526;52.612;13.300;2023-12-29T12:35:28;2.67;;;0.70;;
18796;SDS011;9526;52.612;13.300;2023-12-29T12:38:06;2.45;;;0.90;;
18796;SDS011;9526;52.612;13.300;2023-12-29T12:40:31;2.17;;;0.70;;
18796;SDS011;9526;52.612;13.300;2023-12-29T12:42:54;4.32;;;1.45;;
18796;SDS011;9526;52.612;13.300;2023-12-29T12:45:19;1.83;;;0.63;;
18796;SDS011;9526;52.612;13.300;2023-12-29T12:47:46;2.75;;;0.90;;
18796;SDS011;9526;52.612;13.300;2023-12-29T12:50:16;2.80;;;0.82;;
18796;SDS011;9526;52.612;13.300;2023-12-29T12:52:40;2.88;;;0.70;;
18796;SDS011;9526;52.612;13.300;2023-12-29T12:55:04;3.50;;;1.00;;
18796;SDS011;9526;52.612;13.300;2023-12-29T12:57:29;1.73;;;0.80;;
18796;SDS011;9526;52.612;13.300;2023-12-29T12:59:54;3.25;;;1.20;;
18796;SDS011;9526;52.612;13.300;2023-12-29T13:02:19;2.80;;;1.30;;
18796;SDS011;9526;52.612;13.300;2023-12-29T13:04:45;3.22;;;0.80;;
18796;SDS011;9526;52.612;13.300;2023-12-29T13:07:09;1.58;;;0.93;;
18796;SDS011;9526;52.612;13.300;2023-12-29T13:09:34;2.63;;;1.30;;
18796;SDS011;9526;52.612;13.300;2023-12-29T13:12:08;4.43;;;1.20;;
18796;SDS011;9526;52.612;13.300;2023-12-29T13:14:33;3.67;;;1.20;;
18796;SDS011;9526;52.612;13.300;2023-12-29T13:16:57;2.90;;;0.93;;
18796;SDS011;9526;52.612;13.300;2023-12-29T13:19:21;1.67;;;1.10;;
18796;SDS011;9526;52.612;13.300;2023-12-29T13:21:48;2.35;;;1.00;;
18796;SDS011;9526;52.612;13.300;2023-12-29T13:24:17;2.70;;;1.13;;
18796;SDS011;9526;52.612;13.300;2023-12-29T13:26:41;4.35;;;1.23;;
18796;SDS011;9526;52.612;13.300;2023-12-29T13:29:05;3.13;;;1.30;;
18796;SDS011;9526;52.612;13.300;2023-12-29T13:31:29;4.55;;;1.27;;
18796;SDS011;9526;52.612;13.300;2023-12-29T13:33:57;5.60;;;1.52;;
18796;SDS011;9526;52.612;13.300;2023-12-29T13:36:26;3.20;;;1.40;;
18796;SDS011;9526;52.612;13.300;2023-12-29T13:39:05;3.05;;;1.20;;
18796;SDS011;9526;52.612;13.300;2023-12-29T13:41:32;2.15;;;1.10;;
18796;SDS011;9526;52.612;13.300;2023-12-29T13:43:57;4.80;;;1.52;;
18796;SDS011;9526;52.612;13.300;2023-12-29T13:46:23;1.85;;;0.82;;
18796;SDS011;9526;52.612;13.300;2023-12-29T13:48:47;4.13;;;0.98;;
18796;SDS011;9526;52.612;13.300;2023-12-29T13:51:13;3.28;;;1.40;;
18796;SDS011;9526;52.612;13.300;2023-12-29T13:53:39;3.60;;;1.45;;
18796;SDS011;9526;52.612;13.300;2023-12-29T13:56:08;3.90;;;1.30;;
18796;SDS011;9526;52.612;13.300;2023-12-29T13:58:33;5.20;;;1.33;;
18796;SDS011;9526;52.612;13.300;2023-12-29T14:00:57;2.05;;;1.27;;
18796;SDS011;9526;52.612;13.300;2023-12-29T14:03:22;2.97;;;1.38;;
18796;SDS011;9526;52.612;13.300;2023-12-29T14:05:51;1.05;;;0.95;;
18796;SDS011;9526;52.612;13.300;2023-12-29T14:08:22;2.35;;;0.95;;
18796;SDS011;9526;52.612;13.300;2023-12-29T14:10:48;1.88;;;1.10;;
18796;SDS011;9526;52.612;13.300;2023-12-29T14:13:13;1.75;;;1.17;;
18796;SDS011;9526;52.612;13.300;2023-12-29T14:15:40;5.30;;;1.40;;
18796;SDS011;9526;52.612;13.300;2023-12-29T14:18:06;2.72;;;1.45;;
18796;SDS011;9526;52.612;13.300;2023-12-29T14:21:02;4.22;;;1.15;;
18796;SDS011;9526;52.612;13.300;2023-12-29T14:23:43;2.58;;;1.02;;
18796;SDS011;9526;52.612;13.300;2023-12-29T14:26:11;2.47;;;1.00;;
18796;SDS011;9526;52.612;13.300;2023-12-29T14:28:36;4.53;;;1.60;;
18796;SDS011;9526;52.612;13.300;2023-12-29T14:31:03;2.92;;;1.30;;
18796;SDS011;9526;52.612;13.300;2023-12-29T14:33:26;2.03;;;1.25;;
18796;SDS011;9526;52.612;13.300;2023-12-29T14:35:50;2.13;;;0.88;;
18796;SDS011;9526;52.612;13.300;2023-12-29T14:38:14;1.42;;;1.10;;